Time;durP1;ratioP1;P1;durP2;ratioP2;P2;SDS_P1;SDS_P2;PMS_P1;PMS_P2;Temp;Humidity;BMP_temperature;BMP_pressure;BME280_temperature;BME280_humidity;BME280_pressure;Samples;Min_cycle;Max_cycle;Signal;HPM_P1;HPM_P2
2023/04/07 00:01:06;;;;;;;3.03;1.60;;;7.40;99.90;;;;;;5115704;28;20446;-51
2023/04/07 00:03:34;;;;;;;2.70;1.40;;;7.40;99.90;;;;;;5116172;28;20827;-50
2023/04/07 00:06:01;;;;;;;2.60;1.40;;;7.40;99.90;;;;;;5115935;28;20456;-51
2023/04/07 00:08:30;;;;;;;3.70;1.57;;;7.40;99.90;;;;;;5115429;28;20510;-49
2023/04/07 00:10:57;;;;;;;3.97;1.58;;;7.40;99.90;;;;;;5116270;28;20428;-50
2023/04/07 00:13:25;;;;;;;2.67;1.48;;;7.40;99.90;;;;;;5116234;28;20412;-50
2023/04/07 00:15:52;;;;;;;2.42;1.50;;;7.40;99.90;;;;;;5115775;28;20709;-51
2023/04/07 00:18:19;;;;;;;2.58;1.70;;;7.40;99.90;;;;;;5115500;28;20507;-51
2023/04/07 00:20:46;;;;;;;4.53;1.90;;;7.30;99.90;;;;;;5115823;28;20420;-52
2023/04/07 00:23:13;;;;;;;2.57;1.40;;;7.30;99.90;;;;;;5116300;28;20418;-57
2023/04/07 00:25:42;;;;;;;3.25;1.60;;;7.30;99.90;;;;;;5116068;28;20408;-53
2023/04/07 00:28:09;;;;;;;2.28;1.50;;;7.40;99.90;;;;;;5116162;28;20416;-50
2023/04/07 00:30:36;;;;;;;3.10;1.90;;;7.40;99.90;;;;;;5113140;28;20428;-52
2023/04/07 00:33:03;;;;;;;3.10;1.80;;;7.50;99.90;;;;;;5116144;28;20408;-50
2023/04/07 00:35:30;;;;;;;3.10;1.90;;;7.40;99.90;;;;;;5116185;28;20507;-54
2023/04/07 00:37:58;;;;;;;2.30;1.50;;;7.40;99.90;;;;;;5112072;28;20434;-52
2023/04/07 00:40:25;;;;;;;2.50;1.50;;;7.30;99.90;;;;;;5095398;28;20410;-49
2023/04/07 00:42:54;;;;;;;2.70;1.70;;;7.30;99.90;;;;;;5095675;28;20430;-50
2023/04/07 00:45:21;;;;;;;3.08;1.65;;;7.30;99.90;;;;;;5095494;28;20424;-50
2023/04/07 00:47:48;;;;;;;2.25;1.50;;;7.40;99.90;;;;;;5094583;28;20437;-46
2023/04/07 00:50:15;;;;;;;2.78;1.40;;;7.30;99.90;;;;;;5095560;28;20465;-53
2023/04/07 00:52:43;;;;;;;3.50;1.70;;;7.30;99.90;;;;;;5095728;28;20726;-47
2023/04/07 00:55:10;;;;;;;2.63;1.70;;;7.30;99.90;;;;;;5094747;28;20428;-52
2023/04/07 00:57:37;;;;;;;2.72;1.75;;;7.20;99.90;;;;;;5111157;28;20739;-49
2023/04/07 01:00:08;;;;;;;3.03;1.58;;;7.20;99.90;;;;;;5115734;28;20412;-45
2023/04/07 01:02:40;;;;;;;4.25;1.80;;;7.20;99.90;;;;;;5115155;28;20481;-50
2023/04/07 01:05:15;;;;;;;2.70;1.20;;;7.20;99.90;;;;;;5112275;28;20427;-50
2023/04/07 01:07:55;;;;;;;2.20;1.60;;;7.20;99.90;;;;;;5095128;28;20426;-50
2023/04/07 01:10:30;;;;;;;2.60;1.73;;;7.20;99.90;;;;;;5093945;28;20850;-47
2023/04/07 01:13:05;;;;;;;3.28;1.60;;;7.20;99.90;;;;;;5094279;28;20646;-47
2023/04/07 01:15:35;;;;;;;3.42;1.73;;;7.20;99.90;;;;;;5094460;28;20492;-50
2023/04/07 01:18:11;;;;;;;3.80;1.80;;;7.20;99.90;;;;;;5094994;28;20418;-50
2023/04/07 01:20:40;;;;;;;2.90;1.50;;;7.20;99.90;;;;;;5094801;28;20420;-50
2023/04/07 01:23:08;;;;;;;3.40;2.00;;;7.20;99.90;;;;;;5094758;28;20418;-51
2023/04/07 01:26:07;;;;;;;2.38;1.60;;;7.20;99.90;;;;;;5094844;28;20500;-47
2023/04/07 01:29:07;;;;;;;3.70;1.85;;;7.30;99.90;;;;;;5075676;28;20429;-47
2023/04/07 01:31:39;;;;;;;3.90;1.80;;;7.30;99.90;;;;;;5056885;28;20444;-47
2023/04/07 01:34:09;;;;;;;2.85;1.50;;;7.30;99.90;;;;;;5098133;28;20425;-47
2023/04/07 01:36:36;;;;;;;2.97;1.70;;;7.20;99.90;;;;;;5097408;28;20422;-50
2023/04/07 01:39:04;;;;;;;2.90;1.30;;;7.10;99.90;;;;;;5096772;28;20422;-51
2023/04/07 01:41:33;;;;;;;2.67;1.50;;;7.10;99.90;;;;;;5097834;28;20871;-51
2023/04/07 01:44:02;;;;;;;3.33;1.70;;;7.10;99.90;;;;;;5098031;28;20428;-48
2023/04/07 01:46:29;;;;;;;2.30;1.65;;;7.10;99.90;;;;;;5097422;28;20430;-51
2023/04/07 01:48:58;;;;;;;4.18;1.90;;;7.20;99.90;;;;;;5098641;28;20418;-49
2023/04/07 01:51:28;;;;;;;4.07;1.90;;;7.10;99.90;;;;;;5098621;28;20428;-50
2023/04/07 01:53:57;;;;;;;4.20;2.10;;;7.20;99.90;;;;;;5098463;28;20417;-47
2023/04/07 01:56:24;;;;;;;3.45;2.13;;;7.10;99.90;;;;;;5098644;28;20429;-52
2023/04/07 01:58:51;;;;;;;3.20;1.90;;;7.10;99.90;;;;;;5097892;28;20721;-50
2023/04/07 02:01:18;;;;;;;3.28;1.70;;;7.10;99.90;;;;;;5098338;28;20426;-52
2023/04/07 02:03:53;;;;;;;3.40;1.70;;;7.10;99.90;;;;;;5097241;28;20422;-49
2023/04/07 02:06:27;;;;;;;3.40;1.80;;;7.10;99.90;;;;;;5097405;28;20429;-50
2023/04/07 02:08:59;;;;;;;3.20;1.50;;;7.20;99.90;;;;;;5096674;28;21095;-49
2023/04/07 02:11:27;;;;;;;2.75;1.70;;;7.30;99.90;;;;;;5096888;28;20422;-50
2023/04/07 02:13:55;;;;;;;3.45;1.60;;;7.30;99.90;;;;;;5096667;28;20428;-49
2023/04/07 02:16:23;;;;;;;3.35;1.60;;;7.30;99.90;;;;;;5097022;28;20426;-49
2023/04/07 02:18:50;;;;;;;3.10;1.77;;;7.30;99.90;;;;;;5096467;28;20500;-46
2023/04/07 02:21:18;;;;;;;3.08;1.52;;;7.30;99.90;;;;;;5096388;28;20422;-49
2023/04/07 02:23:47;;;;;;;3.50;1.50;;;7.30;99.90;;;;;;5097156;28;20717;-47
2023/04/07 02:26:14;;;;;;;2.92;1.50;;;7.30;99.90;;;;;;5097279;28;20421;-52
2023/04/07 02:28:41;;;;;;;2.95;1.65;;;7.30;99.90;;;;;;5096735;28;20422;-51
2023/04/07 02:31:08;;;;;;;2.77;1.60;;;7.30;99.90;;;;;;5096615;28;20440;-50
2023/04/07 02:33:35;;;;;;;3.75;1.70;;;7.30;99.90;;;;;;5096931;28;20420;-51
2023/04/07 02:36:02;;;;;;;3.70;1.70;;;7.30;99.90;;;;;;5096749;28;20425;-48
2023/04/07 02:38:30;;;;;;;2.60;1.42;;;7.30;99.90;;;;;;5096288;28;20425;-52
2023/04/07 02:40:58;;;;;;;2.97;1.70;;;7.40;99.90;;;;;;5096496;28;20433;-53
2023/04/07 02:43:25;;;;;;;2.90;1.40;;;7.50;99.90;;;;;;5097108;28;20417;-50
2023/04/07 02:45:53;;;;;;;2.45;1.60;;;7.50;99.90;;;;;;5097464;28;20417;-52
2023/04/07 02:48:20;;;;;;;3.60;1.70;;;7.50;99.90;;;;;;5096591;28;20451;-50
2023/04/07 02:50:47;;;;;;;2.90;1.55;;;7.50;99.90;;;;;;5096060;28;20436;-52
2023/04/07 02:53:15;;;;;;;3.00;1.92;;;7.40;99.90;;;;;;5095935;28;20424;-50
2023/04/07 02:55:42;;;;;;;2.38;1.80;;;7.50;99.90;;;;;;5096259;28;20707;-49
2023/04/07 02:58:10;;;;;;;3.00;1.60;;;7.50;99.90;;;;;;5096279;28;20428;-49
2023/04/07 03:00:37;;;;;;;2.80;1.90;;;7.50;99.90;;;;;;5096146;28;20826;-52
2023/04/07 03:03:05;;;;;;;2.55;1.70;;;7.50;99.90;;;;;;5097006;28;20418;-47
2023/04/07 03:05:32;;;;;;;2.87;1.60;;;7.50;99.90;;;;;;5095745;28;20494;-51
2023/04/07 03:07:59;;;;;;;3.75;1.80;;;7.40;99.90;;;;;;5096340;28;20417;-52
2023/04/07 03:10:26;;;;;;;3.22;1.90;;;7.40;99.90;;;;;;5096045;28;20525;-52
2023/04/07 03:12:53;;;;;;;2.85;1.60;;;7.40;99.90;;;;;;5096159;28;20426;-47
2023/04/07 03:15:22;;;;;;;2.80;1.63;;;7.40;99.90;;;;;;5096255;28;20714;-53
2023/04/07 03:17:49;;;;;;;2.90;1.50;;;7.40;99.90;;;;;;5096483;28;20687;-51
2023/04/07 03:20:16;;;;;;;3.53;1.58;;;7.40;99.90;;;;;;5094856;28;20424;-53
2023/04/07 03:22:46;;;;;;;2.33;1.50;;;7.40;99.90;;;;;;5094235;28;20725;-49
2023/04/07 03:25:13;;;;;;;4.45;1.55;;;7.40;99.90;;;;;;5095045;28;20421;-50
2023/04/07 03:27:40;;;;;;;2.60;1.70;;;7.40;99.90;;;;;;5095465;28;21010;-50
2023/04/07 03:30:08;;;;;;;4.22;1.90;;;7.50;99.90;;;;;;5094838;28;20429;-48
2023/04/07 03:32:37;;;;;;;3.67;2.15;;;7.50;99.90;;;;;;5094863;28;20865;-47
2023/04/07 03:35:04;;;;;;;2.53;1.60;;;7.50;99.90;;;;;;5094633;28;20483;-49
2023/04/07 03:37:32;;;;;;;2.80;1.70;;;7.50;99.90;;;;;;5096006;28;20937;-47
2023/04/07 03:39:59;;;;;;;3.90;1.77;;;7.50;99.90;;;;;;5096167;28;20420;-47
2023/04/07 03:42:26;;;;;;;2.80;1.75;;;7.40;99.90;;;;;;5097201;28;20426;-47
2023/04/07 03:44:53;;;;;;;3.90;2.20;;;7.40;99.90;;;;;;5096980;28;20428;-49
2023/04/07 03:47:21;;;;;;;3.35;1.98;;;7.40;99.90;;;;;;5096593;28;20429;-47
2023/04/07 03:49:50;;;;;;;4.40;2.10;;;7.30;99.90;;;;;;5096418;28;20516;-47
2023/04/07 03:52:17;;;;;;;2.78;1.70;;;7.30;99.90;;;;;;5096345;28;20528;-49
2023/04/07 03:54:44;;;;;;;4.13;1.95;;;7.30;99.90;;;;;;5096249;28;20821;-47
2023/04/07 03:57:11;;;;;;;4.15;1.65;;;7.30;99.90;;;;;;5095961;28;21160;-52
2023/04/07 03:59:38;;;;;;;3.80;1.70;;;7.40;99.90;;;;;;5095582;28;20422;-50
2023/04/07 04:02:05;;;;;;;2.80;2.00;;;7.30;99.90;;;;;;5096416;28;20452;-48
2023/04/07 04:04:33;;;;;;;4.50;1.80;;;7.30;99.90;;;;;;5095960;28;20418;-50
2023/04/07 04:07:01;;;;;;;3.30;2.30;;;7.30;99.90;;;;;;5095917;28;20422;-52
2023/04/07 04:09:31;;;;;;;4.03;2.07;;;7.30;99.90;;;;;;5095551;28;20473;-51
2023/04/07 04:11:58;;;;;;;3.22;1.88;;;7.40;99.90;;;;;;5096447;28;20504;-49
2023/04/07 04:14:25;;;;;;;4.38;2.47;;;7.40;99.90;;;;;;5095916;28;20888;-48
2023/04/07 04:16:53;;;;;;;3.90;1.70;;;7.40;99.90;;;;;;5095869;28;20512;-52
2023/04/07 04:19:20;;;;;;;3.97;2.42;;;7.40;99.90;;;;;;5095760;28;20717;-49
2023/04/07 04:21:47;;;;;;;5.00;2.77;;;7.40;99.90;;;;;;5095795;28;20497;-52
2023/04/07 04:24:16;;;;;;;3.45;2.30;;;7.40;99.90;;;;;;5095138;28;20829;-51
2023/04/07 04:26:43;;;;;;;3.47;1.85;;;7.40;99.90;;;;;;5095864;28;20432;-51
2023/04/07 04:29:10;;;;;;;3.70;1.70;;;7.50;99.90;;;;;;5094313;28;20824;-49
2023/04/07 04:31:37;;;;;;;3.23;2.00;;;7.40;99.90;;;;;;5095560;28;20521;-52
2023/04/07 04:34:04;;;;;;;5.60;2.20;;;7.50;99.90;;;;;;5095198;28;20440;-49
2023/04/07 04:36:31;;;;;;;3.92;1.88;;;7.40;99.90;;;;;;5095610;28;20429;-50
2023/04/07 04:38:58;;;;;;;2.70;1.58;;;7.40;99.90;;;;;;5095745;28;20421;-50
2023/04/07 04:41:27;;;;;;;3.40;1.70;;;7.50;99.90;;;;;;5095582;28;20422;-51
2023/04/07 04:43:54;;;;;;;3.65;2.05;;;7.50;99.90;;;;;;5095302;28;20456;-53
2023/04/07 04:46:21;;;;;;;3.67;2.10;;;7.50;99.90;;;;;;5095052;28;20833;-49
2023/04/07 04:48:48;;;;;;;3.78;1.80;;;7.50;99.90;;;;;;5094997;28;20422;-49
2023/04/07 04:51:15;;;;;;;3.08;1.92;;;7.40;99.90;;;;;;5094855;28;20430;-48
2023/04/07 04:53:42;;;;;;;3.28;1.73;;;7.40;99.90;;;;;;5094949;28;20414;-53
2023/04/07 04:56:10;;;;;;;2.40;1.50;;;7.50;99.90;;;;;;5095337;28;20499;-51
2023/04/07 04:58:40;;;;;;;2.88;1.80;;;7.60;99.90;;;;;;5095879;28;20435;-49
2023/04/07 05:01:08;;;;;;;4.28;2.00;;;7.80;99.90;;;;;;5095773;28;20493;-48
2023/04/07 05:03:35;;;;;;;3.13;1.90;;;7.90;99.90;;;;;;5095519;28;20503;-47
2023/04/07 05:06:02;;;;;;;2.40;1.50;;;7.90;99.90;;;;;;5094295;28;20721;-48
2023/04/07 05:08:29;;;;;;;2.90;1.80;;;8.00;99.90;;;;;;5095265;28;20418;-48
2023/04/07 05:10:57;;;;;;;3.33;2.25;;;7.90;99.90;;;;;;5094774;28;20694;-52
2023/04/07 05:13:25;;;;;;;2.70;1.80;;;7.70;99.90;;;;;;5095408;28;20440;-48
2023/04/07 05:15:54;;;;;;;3.70;2.00;;;7.60;99.90;;;;;;5094677;28;20686;-51
2023/04/07 05:18:21;;;;;;;2.35;1.67;;;7.60;99.90;;;;;;5095309;28;20418;-51
2023/04/07 05:20:49;;;;;;;3.50;1.50;;;7.50;99.90;;;;;;5094500;28;20436;-49
2023/04/07 05:23:16;;;;;;;4.45;1.95;;;7.50;99.90;;;;;;5094953;28;20429;-48
2023/04/07 05:25:43;;;;;;;3.47;2.15;;;7.50;99.90;;;;;;5094869;28;20422;-52
2023/04/07 05:28:10;;;;;;;4.18;1.80;;;7.60;99.90;;;;;;5094660;28;20440;-51
2023/04/07 05:30:38;;;;;;;5.20;2.30;;;7.60;99.90;;;;;;5094178;28;20429;-48
2023/04/07 05:33:06;;;;;;;4.57;2.33;;;7.70;99.90;;;;;;5094156;28;20417;-49
2023/04/07 05:35:33;;;;;;;3.05;1.90;;;7.70;99.90;;;;;;5094991;28;20414;-51
2023/04/07 05:38:00;;;;;;;3.97;1.80;;;7.80;99.90;;;;;;5094664;28;20414;-47
2023/04/07 05:40:29;;;;;;;2.90;1.60;;;7.90;99.90;;;;;;5094100;28;20696;-52
2023/04/07 05:42:56;;;;;;;3.40;1.90;;;7.90;99.90;;;;;;5094976;28;20845;-48
2023/04/07 05:45:23;;;;;;;3.30;2.10;;;7.80;99.90;;;;;;5094318;28;20781;-48
2023/04/07 05:47:50;;;;;;;3.23;2.00;;;7.80;99.90;;;;;;5095015;28;20436;-50
2023/04/07 05:50:19;;;;;;;3.15;1.88;;;7.90;99.90;;;;;;5094549;28;20462;-48
2023/04/07 05:52:46;;;;;;;4.30;2.10;;;7.90;99.90;;;;;;5095130;28;20717;-49
2023/04/07 05:55:13;;;;;;;3.47;1.60;;;7.80;99.90;;;;;;5094717;28;20426;-48
2023/04/07 05:57:40;;;;;;;2.92;1.60;;;7.80;99.90;;;;;;5094640;28;20430;-48
2023/04/07 06:00:09;;;;;;;3.20;1.80;;;7.90;99.90;;;;;;5094426;28;20410;-49
2023/04/07 06:02:38;;;;;;;3.78;1.70;;;7.90;99.90;;;;;;5094394;28;20429;-47
2023/04/07 06:05:06;;;;;;;3.15;1.77;;;7.90;99.90;;;;;;5094473;28;20413;-49
2023/04/07 06:07:34;;;;;;;2.90;1.90;;;8.00;99.90;;;;;;5094758;28;20437;-53
2023/04/07 06:10:01;;;;;;;4.32;1.92;;;8.00;99.90;;;;;;5094205;28;20501;-50
2023/04/07 06:12:29;;;;;;;3.47;2.20;;;8.00;99.90;;;;;;5094607;28;20436;-54
2023/04/07 06:14:56;;;;;;;4.47;2.30;;;8.10;99.90;;;;;;5094980;28;20418;-47
2023/04/07 06:17:23;;;;;;;3.00;2.05;;;8.00;99.90;;;;;;5097053;28;20453;-52
2023/04/07 06:19:50;;;;;;;3.80;1.73;;;8.10;99.90;;;;;;5098594;28;20426;-50
2023/04/07 06:22:17;;;;;;;4.40;1.90;;;8.10;99.90;;;;;;5098210;28;20413;-54
2023/04/07 06:24:46;;;;;;;5.28;2.60;;;8.00;99.90;;;;;;5097786;28;20428;-52
2023/04/07 06:27:13;;;;;;;4.07;2.40;;;8.00;99.90;;;;;;5098490;28;20707;-53
2023/04/07 06:29:40;;;;;;;3.38;2.20;;;8.00;99.90;;;;;;5097999;28;20833;-50
2023/04/07 06:32:07;;;;;;;3.75;2.05;;;7.90;99.90;;;;;;5097208;28;21019;-50
2023/04/07 06:34:35;;;;;;;3.90;2.40;;;7.90;99.90;;;;;;5097380;28;20414;-49
2023/04/07 06:37:02;;;;;;;3.23;2.00;;;8.00;99.90;;;;;;5097870;28;20709;-48
2023/04/07 06:39:30;;;;;;;3.15;1.90;;;8.10;99.90;;;;;;5098049;28;20429;-52
2023/04/07 06:42:00;;;;;;;3.58;1.77;;;8.20;99.90;;;;;;5098071;28;20730;-49
2023/04/07 06:44:27;;;;;;;3.00;2.30;;;8.20;99.90;;;;;;5097927;28;20422;-49
2023/04/07 06:46:55;;;;;;;4.10;2.00;;;8.30;99.90;;;;;;5097189;28;20440;-51
2023/04/07 06:49:22;;;;;;;4.15;2.10;;;8.40;99.90;;;;;;5097417;28;20417;-48
2023/04/07 06:51:49;;;;;;;2.92;2.00;;;8.40;99.90;;;;;;5097519;28;20430;-51
2023/04/07 06:54:16;;;;;;;5.22;2.25;;;8.40;99.90;;;;;;5097561;28;20418;-49
2023/04/07 06:56:44;;;;;;;4.28;2.47;;;8.40;99.90;;;;;;5097214;28;20550;-51
2023/04/07 06:59:13;;;;;;;3.85;2.28;;;8.40;99.90;;;;;;5097614;28;20772;-49
2023/04/07 07:01:40;;;;;;;2.50;1.80;;;8.40;99.90;;;;;;5097080;28;20426;-54
2023/04/07 07:04:08;;;;;;;5.00;1.88;;;8.40;99.90;;;;;;5097272;28;20413;-50
2023/04/07 07:06:35;;;;;;;3.10;1.80;;;8.40;99.90;;;;;;5097058;28;20432;-51
2023/04/07 07:09:02;;;;;;;3.80;2.00;;;8.40;99.90;;;;;;5096659;28;20426;-52
2023/04/07 07:11:30;;;;;;;3.03;1.92;;;8.50;99.90;;;;;;5097187;28;20834;-51
2023/04/07 07:13:57;;;;;;;2.70;1.75;;;8.50;99.90;;;;;;5095965;28;20422;-51
2023/04/07 07:16:25;;;;;;;3.13;1.90;;;8.50;99.90;;;;;;5095832;28;20439;-51
2023/04/07 07:18:52;;;;;;;3.60;2.00;;;8.50;99.90;;;;;;5095558;28;20416;-49
2023/04/07 07:21:21;;;;;;;4.78;2.70;;;8.60;99.90;;;;;;5096149;28;20424;-53
2023/04/07 07:23:48;;;;;;;4.25;1.90;;;8.60;99.90;;;;;;5095428;28;20417;-52
2023/04/07 07:26:16;;;;;;;3.90;1.98;;;8.60;99.90;;;;;;5095940;28;20429;-51
2023/04/07 07:28:43;;;;;;;3.17;2.20;;;8.50;99.90;;;;;;5095057;28;20859;-49
2023/04/07 07:31:11;;;;;;;3.65;2.40;;;8.50;99.90;;;;;;5095646;28;20440;-51
2023/04/07 07:33:42;;;;;;;4.85;3.00;;;8.50;99.90;;;;;;5096222;28;20461;-53
2023/04/07 07:36:10;;;;;;;5.50;2.47;;;8.50;99.90;;;;;;5096546;28;20900;-51
2023/04/07 07:38:37;;;;;;;5.28;2.50;;;8.50;99.90;;;;;;5096436;28;20418;-48
2023/04/07 07:41:05;;;;;;;4.13;2.50;;;8.50;99.90;;;;;;5096934;28;20508;-49
2023/04/07 07:43:32;;;;;;;4.68;2.90;;;8.60;99.90;;;;;;5096467;28;20783;-50
2023/04/07 07:45:59;;;;;;;4.80;2.60;;;8.60;99.90;;;;;;5096806;28;20510;-48
2023/04/07 07:48:26;;;;;;;4.25;2.20;;;8.60;99.90;;;;;;5096058;28;20876;-52
2023/04/07 07:50:55;;;;;;;3.33;2.42;;;8.60;99.90;;;;;;5096476;28;20521;-49
2023/04/07 07:53:23;;;;;;;3.00;2.10;;;8.60;99.90;;;;;;5096025;28;20421;-50
2023/04/07 07:55:50;;;;;;;3.40;2.10;;;8.60;99.90;;;;;;5095066;28;20521;-49
2023/04/07 07:58:17;;;;;;;3.33;2.30;;;8.60;99.90;;;;;;5095301;28;20420;-50
2023/04/07 08:00:44;;;;;;;4.00;2.20;;;8.60;99.90;;;;;;5096686;28;20410;-50
2023/04/07 08:03:12;;;;;;;3.30;1.90;;;8.70;99.90;;;;;;5096143;28;20479;-49
2023/04/07 08:05:39;;;;;;;3.22;1.90;;;8.80;99.90;;;;;;5095728;28;20746;-49
2023/04/07 08:08:08;;;;;;;3.90;1.90;;;8.90;99.90;;;;;;5096274;28;20833;-51
2023/04/07 08:10:35;;;;;;;3.80;2.70;;;8.90;99.90;;;;;;5096029;28;20713;-50
2023/04/07 08:13:02;;;;;;;5.07;2.40;;;9.00;99.90;;;;;;5095629;28;20430;-48
2023/04/07 08:15:29;;;;;;;3.30;1.70;;;9.20;99.90;;;;;;5095731;28;20713;-48
2023/04/07 08:17:56;;;;;;;3.40;1.90;;;9.40;99.90;;;;;;5095812;28;20414;-51
2023/04/07 08:20:23;;;;;;;3.85;2.33;;;9.70;99.90;;;;;;5095969;28;20417;-52
2023/04/07 08:22:51;;;;;;;2.70;1.80;;;9.80;99.90;;;;;;5095514;28;20426;-50
2023/04/07 08:25:19;;;;;;;3.20;1.40;;;9.80;99.90;;;;;;5095327;28;20437;-53
2023/04/07 08:27:46;;;;;;;4.15;1.50;;;9.80;99.90;;;;;;5095626;28;20911;-49
2023/04/07 08:30:15;;;;;;;3.47;1.50;;;9.90;99.90;;;;;;5095105;28;20424;-49
2023/04/07 08:32:44;;;;;;;2.30;1.60;;;10.00;99.90;;;;;;5095721;28;20433;-51
2023/04/07 08:35:12;;;;;;;3.42;1.70;;;10.10;99.90;;;;;;5095526;28;20425;-52
2023/04/07 08:37:41;;;;;;;3.28;1.63;;;10.10;99.90;;;;;;5095167;28;20695;-53
2023/04/07 08:40:08;;;;;;;2.78;1.50;;;10.30;99.90;;;;;;5094175;28;20410;-51
2023/04/07 08:42:42;;;;;;;2.30;1.38;;;10.60;99.90;;;;;;5095736;28;20425;-53
2023/04/07 08:45:10;;;;;;;2.30;1.50;;;11.10;99.90;;;;;;5095488;28;20428;-54
2023/04/07 08:47:38;;;;;;;3.30;1.80;;;11.30;99.90;;;;;;5095592;28;20429;-52
2023/04/07 08:50:08;;;;;;;2.27;1.40;;;11.40;99.90;;;;;;5095325;28;20414;-53
2023/04/07 08:52:40;;;;;;;2.60;1.43;;;11.30;99.90;;;;;;5094957;28;20429;-53
2023/04/07 08:55:08;;;;;;;2.37;1.50;;;11.20;99.90;;;;;;5095222;28;20417;-51
2023/04/07 08:57:37;;;;;;;3.50;1.30;;;11.30;99.90;;;;;;5095332;28;20826;-53
2023/04/07 09:00:05;;;;;;;2.88;1.60;;;11.50;99.90;;;;;;5093837;28;20418;-52
2023/04/07 09:02:34;;;;;;;1.80;1.20;;;11.50;99.90;;;;;;5095476;28;20428;-54
2023/04/07 09:05:03;;;;;;;2.87;1.20;;;11.70;99.90;;;;;;5095007;28;20724;-47
2023/04/07 09:07:31;;;;;;;1.83;1.33;;;11.80;99.90;;;;;;5095060;28;20463;-51
2023/04/07 09:09:59;;;;;;;4.90;2.10;;;11.80;99.90;;;;;;5095534;28;20452;-50
2023/04/07 09:12:27;;;;;;;4.60;3.22;;;12.00;99.90;;;;;;5094257;28;20490;-53
2023/04/07 09:14:55;;;;;;;2.13;1.58;;;11.70;99.90;;;;;;5093758;28;20848;-49
2023/04/07 09:17:24;;;;;;;2.10;1.40;;;11.70;99.90;;;;;;5094020;28;20425;-51
2023/04/07 09:19:53;;;;;;;2.47;1.40;;;11.90;99.90;;;;;;5093413;28;20741;-51
2023/04/07 09:22:35;;;;;;;2.63;1.40;;;11.90;99.90;;;;;;5093286;28;20459;-51
2023/04/07 09:25:19;;;;;;;2.00;1.40;;;12.20;99.90;;;;;;5094506;28;20991;-50
2023/04/07 09:27:57;;;;;;;1.90;1.30;;;12.60;99.90;;;;;;5091075;28;20432;-50
2023/04/07 09:30:26;;;;;;;2.33;1.40;;;12.80;99.90;;;;;;5094049;28;20409;-51
2023/04/07 09:32:54;;;;;;;2.55;1.30;;;13.00;99.90;;;;;;5094294;28;20468;-49
2023/04/07 09:35:22;;;;;;;1.65;1.10;;;13.20;99.90;;;;;;5094332;28;20522;-53
2023/04/07 09:38:03;;;;;;;1.90;1.20;;;13.20;99.90;;;;;;5094798;28;20425;-52
2023/04/07 09:40:30;;;;;;;3.00;1.30;;;13.30;99.90;;;;;;5094626;28;20817;-53
2023/04/07 09:42:58;;;;;;;3.20;1.30;;;13.30;99.90;;;;;;5109793;28;20867;-53
2023/04/07 09:45:27;;;;;;;1.60;1.20;;;13.40;99.90;;;;;;5094681;28;20451;-48
2023/04/07 09:47:55;;;;;;;2.90;1.20;;;13.10;99.90;;;;;;5105024;28;20871;-49
2023/04/07 09:50:33;;;;;;;2.20;1.30;;;13.00;99.90;;;;;;5097958;28;20407;-51
2023/04/07 09:53:02;;;;;;;2.28;1.20;;;12.80;99.90;;;;;;5098800;28;20435;-52
2023/04/07 09:55:29;;;;;;;2.67;1.50;;;12.50;99.90;;;;;;5097919;28;20516;-49
2023/04/07 09:57:57;;;;;;;1.42;1.00;;;12.50;99.90;;;;;;5098036;28;20493;-49
2023/04/07 10:00:26;;;;;;;3.65;1.40;;;12.60;99.90;;;;;;5098138;28;20414;-49
2023/04/07 10:02:53;;;;;;;1.90;1.30;;;12.60;99.90;;;;;;5098288;28;20410;-53
2023/04/07 10:05:24;;;;;;;2.65;1.40;;;12.70;99.90;;;;;;5101473;28;20430;-54
2023/04/07 10:07:51;;;;;;;2.90;1.30;;;12.80;99.90;;;;;;5113058;28;20845;-53
2023/04/07 10:10:18;;;;;;;3.73;1.50;;;12.80;99.90;;;;;;5096136;28;20879;-54
2023/04/07 10:12:46;;;;;;;2.63;1.30;;;12.60;99.90;;;;;;5097219;28;20430;-51
2023/04/07 10:15:14;;;;;;;1.80;1.38;;;12.50;99.90;;;;;;5097505;28;20418;-48
2023/04/07 10:17:47;;;;;;;3.65;1.20;;;12.60;99.90;;;;;;5097250;28;20779;-49
2023/04/07 10:20:17;;;;;;;2.75;1.30;;;12.70;99.90;;;;;;5097583;28;20418;-49
2023/04/07 10:22:46;;;;;;;2.67;1.45;;;12.80;99.90;;;;;;5096782;28;20474;-55
2023/04/07 10:25:17;;;;;;;2.50;1.10;;;12.90;99.90;;;;;;5097510;28;20420;-50
2023/04/07 10:27:49;;;;;;;2.30;1.40;;;12.90;99.90;;;;;;5097750;28;20449;-52
2023/04/07 10:30:20;;;;;;;2.60;1.43;;;12.90;99.90;;;;;;5097909;28;20410;-54
2023/04/07 10:32:50;;;;;;;2.53;1.35;;;12.60;99.90;;;;;;5096164;28;20532;-51
2023/04/07 10:35:18;;;;;;;3.50;1.30;;;12.40;99.90;;;;;;5096666;28;20413;-54
2023/04/07 10:38:13;;;;;;;2.80;1.50;;;12.50;99.90;;;;;;5097141;28;21067;-52
2023/04/07 10:40:42;;;;;;;2.05;1.20;;;12.70;99.90;;;;;;5095858;28;20454;-51
2023/04/07 10:43:10;;;;;;;2.20;1.20;;;12.80;99.90;;;;;;5095471;28;20433;-54
2023/04/07 10:45:58;;;;;;;4.00;1.40;;;13.00;99.90;;;;;;5096816;28;20908;-51
2023/04/07 10:48:32;;;;;;;1.80;1.10;;;13.10;99.90;;;;;;5096963;28;20429;-50
2023/04/07 10:51:16;;;;;;;2.50;1.15;;;13.10;99.90;;;;;;5096788;28;20888;-52
2023/04/07 10:54:17;;;;;;;2.00;1.30;;;13.30;99.90;;;;;;5095065;28;20479;-50
2023/04/07 10:57:09;;;;;;;2.70;1.55;;;13.20;99.90;;;;;;5095809;28;20420;-51
2023/04/07 10:59:37;;;;;;;2.55;1.38;;;13.20;99.90;;;;;;5094465;28;20484;-52
2023/04/07 11:02:32;;;;;;;2.97;1.40;;;13.10;99.90;;;;;;5094574;28;20424;-53
2023/04/07 11:05:01;;;;;;;2.08;1.30;;;13.30;99.90;;;;;;5094810;28;20413;-53
2023/04/07 11:07:47;;;;;;;1.60;1.10;;;13.30;99.90;;;;;;5095172;28;20433;-52
2023/04/07 11:10:17;;;;;;;2.95;1.23;;;13.60;99.90;;;;;;5095748;28;20452;-49
2023/04/07 11:12:57;;;;;;;1.63;1.08;;;13.80;99.90;;;;;;5096789;28;20838;-52
2023/04/07 11:15:24;;;;;;;2.50;1.27;;;13.60;99.90;;;;;;5096929;28;20458;-54
2023/04/07 11:18:17;;;;;;;2.00;1.27;;;13.60;99.90;;;;;;5096701;28;20922;-52
2023/04/07 11:20:52;;;;;;;3.50;1.20;;;13.50;99.90;;;;;;5094130;28;20496;-49
2023/04/07 11:23:21;;;;;;;2.00;1.50;;;13.20;99.90;;;;;;5094616;28;20417;-54
2023/04/07 11:25:51;;;;;;;2.28;1.10;;;13.00;99.90;;;;;;5094667;28;20418;-52
2023/04/07 11:28:18;;;;;;;2.13;1.10;;;13.00;99.90;;;;;;5095214;28;20702;-50
2023/04/07 11:30:48;;;;;;;2.55;1.30;;;13.00;99.90;;;;;;5093372;28;20756;-55
2023/04/07 11:33:17;;;;;;;2.30;1.30;;;13.00;99.90;;;;;;5094036;28;20430;-50
2023/04/07 11:35:56;;;;;;;2.60;1.20;;;12.90;99.90;;;;;;5094939;28;20418;-50
2023/04/07 11:38:26;;;;;;;1.70;1.10;;;12.60;99.90;;;;;;5094308;28;20428;-52
2023/04/07 11:40:53;;;;;;;2.20;1.20;;;12.60;99.90;;;;;;5103139;28;20440;-52
2023/04/07 11:43:22;;;;;;;2.53;1.30;;;12.60;99.90;;;;;;5113804;28;20414;-52
2023/04/07 11:46:10;;;;;;;1.60;1.10;;;12.60;99.90;;;;;;5113514;28;20828;-51
2023/04/07 11:48:39;;;;;;;2.40;1.20;;;12.70;99.90;;;;;;5107363;28;20433;-48
2023/04/07 11:51:16;;;;;;;2.65;1.00;;;12.60;99.90;;;;;;5095470;28;20436;-52
2023/04/07 11:53:43;;;;;;;3.10;1.00;;;12.50;99.90;;;;;;5094121;28;20441;-54
2023/04/07 11:56:15;;;;;;;2.70;1.00;;;12.40;99.90;;;;;;5095262;28;20455;-54
2023/04/07 11:58:48;;;;;;;2.63;1.20;;;12.30;99.90;;;;;;5099826;28;20449;-49
2023/04/07 12:01:15;;;;;;;2.92;1.40;;;12.10;99.90;;;;;;5102106;28;20508;-51
2023/04/07 12:03:57;;;;;;;2.30;1.50;;;12.00;99.90;;;;;;5114978;28;20439;-52
2023/04/07 12:06:32;;;;;;;3.83;1.40;;;11.80;99.90;;;;;;5114867;28;20475;-49
2023/04/07 12:08:59;;;;;;;3.72;1.80;;;11.70;99.90;;;;;;5114698;28;20499;-52
2023/04/07 12:11:26;;;;;;;2.63;1.55;;;11.50;99.90;;;;;;5113498;28;20494;-51
2023/04/07 12:13:53;;;;;;;2.83;1.50;;;11.50;99.90;;;;;;5113722;28;20425;-54
2023/04/07 12:16:21;;;;;;;1.98;1.40;;;11.40;99.90;;;;;;5113899;28;20464;-51
2023/04/07 12:18:50;;;;;;;2.10;1.30;;;11.30;99.90;;;;;;5113999;28;20507;-49
2023/04/07 12:21:18;;;;;;;2.30;1.70;;;11.30;99.90;;;;;;5114355;28;20432;-48
2023/04/07 12:23:46;;;;;;;3.08;1.50;;;11.20;99.90;;;;;;5113507;28;20415;-50
2023/04/07 12:26:13;;;;;;;2.65;1.70;;;11.20;99.90;;;;;;5114107;28;20424;-50
2023/04/07 12:28:41;;;;;;;2.37;1.37;;;11.00;99.90;;;;;;5114186;28;20854;-50
2023/04/07 12:31:08;;;;;;;1.60;1.10;;;10.90;99.90;;;;;;5115331;28;20620;-50
2023/04/07 12:33:36;;;;;;;2.30;1.10;;;10.90;99.90;;;;;;5115628;28;20428;-52
2023/04/07 12:36:03;;;;;;;2.10;1.00;;;10.90;99.90;;;;;;5113828;28;20465;-49
2023/04/07 12:38:30;;;;;;;1.40;1.00;;;10.50;99.90;;;;;;5115053;28;20416;-49
2023/04/07 12:41:02;;;;;;;2.30;1.00;;;10.30;99.90;;;;;;5115217;28;20424;-51
2023/04/07 12:43:29;;;;;;;2.10;1.00;;;10.40;99.90;;;;;;5114993;28;20858;-49
2023/04/07 12:45:56;;;;;;;1.63;1.10;;;10.40;99.90;;;;;;5114048;28;20430;-54
2023/04/07 12:48:23;;;;;;;1.40;1.00;;;10.30;99.90;;;;;;5115017;28;20412;-49
2023/04/07 12:50:51;;;;;;;1.77;0.95;;;10.30;99.90;;;;;;5115163;28;20719;-49
2023/04/07 12:53:18;;;;;;;2.60;1.10;;;10.30;99.90;;;;;;5115488;28;20518;-49
2023/04/07 12:55:45;;;;;;;1.30;0.90;;;10.20;99.90;;;;;;5113886;28;20428;-48
2023/04/07 12:58:13;;;;;;;1.30;0.80;;;10.10;99.90;;;;;;5114545;28;20412;-47
2023/04/07 13:00:41;;;;;;;2.03;1.00;;;10.00;99.90;;;;;;5114928;28;20419;-52
2023/04/07 13:03:09;;;;;;;3.00;1.00;;;10.00;99.90;;;;;;5114528;28;20400;-49